sensor_id;sensor_type;location;lat;lon;timestamp;P1;durP1;ratioP1;P2;durP2;ratioP2
19179;SDS011;9722;48.754;8.868;2023-01-25T00:03:11;14.40;;;12.00;;
19179;SDS011;9722;48.754;8.868;2023-01-25T00:06:32;16.27;;;12.33;;
19179;SDS011;9722;48.754;8.868;2023-01-25T00:09:52;19.13;;;13.33;;
19179;SDS011;9722;48.754;8.868;2023-01-25T00:13:13;18.33;;;12.60;;
19179;SDS011;9722;48.754;8.868;2023-01-25T00:16:33;19.13;;;13.47;;
19179;SDS011;9722;48.754;8.868;2023-01-25T00:19:54;17.17;;;12.77;;
19179;SDS011;9722;48.754;8.868;2023-01-25T00:23:15;16.20;;;12.30;;
19179;SDS011;9722;48.754;8.868;2023-01-25T00:26:35;17.87;;;12.30;;
19179;SDS011;9722;48.754;8.868;2023-01-25T00:29:57;15.60;;;12.40;;
19179;SDS011;9722;48.754;8.868;2023-01-25T00:39:58;17.80;;;13.10;;
19179;SDS011;9722;48.754;8.868;2023-01-25T00:43:18;18.83;;;12.63;;
19179;SDS011;9722;48.754;8.868;2023-01-25T00:46:39;19.63;;;12.60;;
19179;SDS011;9722;48.754;8.868;2023-01-25T00:49:59;19.60;;;14.10;;
19179;SDS011;9722;48.754;8.868;2023-01-25T00:53:20;17.53;;;12.70;;
19179;SDS011;9722;48.754;8.868;2023-01-25T00:56:40;15.27;;;11.93;;
19179;SDS011;9722;48.754;8.868;2023-01-25T01:00:01;15.30;;;11.43;;
19179;SDS011;9722;48.754;8.868;2023-01-25T01:03:22;17.67;;;12.40;;
19179;SDS011;9722;48.754;8.868;2023-01-25T01:06:43;15.97;;;12.17;;
19179;SDS011;9722;48.754;8.868;2023-01-25T01:10:04;16.43;;;11.67;;
19179;SDS011;9722;48.754;8.868;2023-01-25T01:13:25;15.33;;;12.30;;
19179;SDS011;9722;48.754;8.868;2023-01-25T01:16:46;18.17;;;12.50;;
19179;SDS011;9722;48.754;8.868;2023-01-25T01:20:07;18.00;;;11.83;;
19179;SDS011;9722;48.754;8.868;2023-01-25T01:23:28;21.30;;;12.50;;
19179;SDS011;9722;48.754;8.868;2023-01-25T01:26:49;17.33;;;12.93;;
19179;SDS011;9722;48.754;8.868;2023-01-25T01:30:10;16.67;;;11.90;;
19179;SDS011;9722;48.754;8.868;2023-01-25T01:33:31;18.87;;;13.17;;
19179;SDS011;9722;48.754;8.868;2023-01-25T01:36:51;17.63;;;13.03;;
19179;SDS011;9722;48.754;8.868;2023-01-25T01:40:15;17.83;;;12.27;;
19179;SDS011;9722;48.754;8.868;2023-01-25T01:43:36;17.83;;;12.97;;
19179;SDS011;9722;48.754;8.868;2023-01-25T01:46:57;18.07;;;12.37;;
19179;SDS011;9722;48.754;8.868;2023-01-25T01:50:19;19.37;;;12.10;;
19179;SDS011;9722;48.754;8.868;2023-01-25T01:53:43;15.83;;;12.30;;
19179;SDS011;9722;48.754;8.868;2023-01-25T01:57:17;16.17;;;12.33;;
19179;SDS011;9722;48.754;8.868;2023-01-25T02:00:42;20.80;;;12.90;;
19179;SDS011;9722;48.754;8.868;2023-01-25T02:04:02;18.33;;;12.97;;
19179;SDS011;9722;48.754;8.868;2023-01-25T02:07:30;15.27;;;12.00;;
19179;SDS011;9722;48.754;8.868;2023-01-25T02:10:52;19.30;;;13.67;;
19179;SDS011;9722;48.754;8.868;2023-01-25T02:14:13;19.00;;;12.50;;
19179;SDS011;9722;48.754;8.868;2023-01-25T02:17:36;17.73;;;12.53;;
19179;SDS011;9722;48.754;8.868;2023-01-25T02:20:57;16.77;;;12.33;;
19179;SDS011;9722;48.754;8.868;2023-01-25T02:24:22;18.47;;;13.47;;
19179;SDS011;9722;48.754;8.868;2023-01-25T02:27:50;17.60;;;13.10;;
19179;SDS011;9722;48.754;8.868;2023-01-25T02:31:15;17.27;;;13.03;;
19179;SDS011;9722;48.754;8.868;2023-01-25T02:34:36;15.97;;;12.80;;
19179;SDS011;9722;48.754;8.868;2023-01-25T02:37:56;16.87;;;12.37;;
19179;SDS011;9722;48.754;8.868;2023-01-25T02:41:18;17.93;;;13.13;;
19179;SDS011;9722;48.754;8.868;2023-01-25T02:44:43;14.27;;;12.10;;
19179;SDS011;9722;48.754;8.868;2023-01-25T02:48:04;19.77;;;12.53;;
19179;SDS011;9722;48.754;8.868;2023-01-25T02:51:26;16.83;;;12.40;;
19179;SDS011;9722;48.754;8.868;2023-01-25T02:54:49;16.17;;;12.17;;
19179;SDS011;9722;48.754;8.868;2023-01-25T02:58:09;19.23;;;12.70;;
19179;SDS011;9722;48.754;8.868;2023-01-25T03:01:31;15.40;;;12.07;;
19179;SDS011;9722;48.754;8.868;2023-01-25T03:04:52;17.07;;;12.77;;
19179;SDS011;9722;48.754;8.868;2023-01-25T03:08:13;17.50;;;12.33;;
19179;SDS011;9722;48.754;8.868;2023-01-25T03:11:34;14.67;;;11.50;;
19179;SDS011;9722;48.754;8.868;2023-01-25T03:14:55;18.33;;;13.10;;
19179;SDS011;9722;48.754;8.868;2023-01-25T03:18:15;14.67;;;11.60;;
19179;SDS011;9722;48.754;8.868;2023-01-25T03:21:36;15.73;;;12.20;;
19179;SDS011;9722;48.754;8.868;2023-01-25T03:24:56;16.37;;;11.90;;
19179;SDS011;9722;48.754;8.868;2023-01-25T03:28:17;17.73;;;12.67;;
19179;SDS011;9722;48.754;8.868;2023-01-25T03:31:37;16.57;;;11.87;;
19179;SDS011;9722;48.754;8.868;2023-01-25T03:34:58;15.27;;;12.43;;
19179;SDS011;9722;48.754;8.868;2023-01-25T03:38:18;14.60;;;11.37;;
19179;SDS011;9722;48.754;8.868;2023-01-25T03:41:42;19.17;;;12.70;;
19179;SDS011;9722;48.754;8.868;2023-01-25T03:45:03;22.33;;;12.73;;
19179;SDS011;9722;48.754;8.868;2023-01-25T03:48:24;15.90;;;11.87;;
19179;SDS011;9722;48.754;8.868;2023-01-25T03:51:46;16.10;;;11.90;;
19179;SDS011;9722;48.754;8.868;2023-01-25T03:55:07;18.90;;;12.00;;
19179;SDS011;9722;48.754;8.868;2023-01-25T03:58:28;17.53;;;12.23;;
19179;SDS011;9722;48.754;8.868;2023-01-25T04:01:49;15.77;;;11.37;;
19179;SDS011;9722;48.754;8.868;2023-01-25T04:05:10;17.77;;;11.03;;
19179;SDS011;9722;48.754;8.868;2023-01-25T04:08:31;14.00;;;11.17;;
19179;SDS011;9722;48.754;8.868;2023-01-25T04:11:51;13.33;;;10.63;;
19179;SDS011;9722;48.754;8.868;2023-01-25T04:15:12;15.30;;;11.77;;
19179;SDS011;9722;48.754;8.868;2023-01-25T04:18:32;12.93;;;10.30;;
19179;SDS011;9722;48.754;8.868;2023-01-25T04:21:53;15.13;;;11.57;;
19179;SDS011;9722;48.754;8.868;2023-01-25T04:25:13;12.37;;;10.17;;
19179;SDS011;9722;48.754;8.868;2023-01-25T04:28:34;13.73;;;10.43;;
19179;SDS011;9722;48.754;8.868;2023-01-25T04:31:55;14.83;;;10.00;;
19179;SDS011;9722;48.754;8.868;2023-01-25T04:35:15;14.33;;;10.50;;
19179;SDS011;9722;48.754;8.868;2023-01-25T04:38:36;12.23;;;10.53;;
19179;SDS011;9722;48.754;8.868;2023-01-25T04:41:57;14.83;;;10.77;;
19179;SDS011;9722;48.754;8.868;2023-01-25T04:45:17;12.27;;;10.27;;
19179;SDS011;9722;48.754;8.868;2023-01-25T04:48:37;11.90;;;9.60;;
19179;SDS011;9722;48.754;8.868;2023-01-25T04:51:58;14.10;;;10.53;;
19179;SDS011;9722;48.754;8.868;2023-01-25T04:55:19;11.80;;;10.37;;
19179;SDS011;9722;48.754;8.868;2023-01-25T04:58:40;11.57;;;9.43;;
19179;SDS011;9722;48.754;8.868;2023-01-25T05:02:00;13.80;;;10.07;;
19179;SDS011;9722;48.754;8.868;2023-01-25T05:05:21;13.40;;;9.30;;
19179;SDS011;9722;48.754;8.868;2023-01-25T05:08:41;13.33;;;10.13;;
19179;SDS011;9722;48.754;8.868;2023-01-25T05:12:02;14.03;;;11.07;;
19179;SDS011;9722;48.754;8.868;2023-01-25T05:15:22;15.87;;;10.10;;
19179;SDS011;9722;48.754;8.868;2023-01-25T05:18:43;12.57;;;10.00;;
19179;SDS011;9722;48.754;8.868;2023-01-25T05:22:04;12.20;;;9.77;;
19179;SDS011;9722;48.754;8.868;2023-01-25T05:25:26;12.63;;;10.50;;
19179;SDS011;9722;48.754;8.868;2023-01-25T05:29:16;14.20;;;10.50;;
19179;SDS011;9722;48.754;8.868;2023-01-25T05:32:36;11.93;;;9.43;;
19179;SDS011;9722;48.754;8.868;2023-01-25T05:35:57;14.97;;;9.27;;
19179;SDS011;9722;48.754;8.868;2023-01-25T05:39:17;13.33;;;9.87;;
19179;SDS011;9722;48.754;8.868;2023-01-25T05:42:38;11.77;;;9.80;;
19179;SDS011;9722;48.754;8.868;2023-01-25T05:45:59;11.43;;;9.33;;
19179;SDS011;9722;48.754;8.868;2023-01-25T05:49:19;13.73;;;10.03;;
19179;SDS011;9722;48.754;8.868;2023-01-25T05:52:40;10.67;;;8.37;;
19179;SDS011;9722;48.754;8.868;2023-01-25T05:56:04;9.57;;;7.97;;
19179;SDS011;9722;48.754;8.868;2023-01-25T05:59:25;10.10;;;7.90;;
19179;SDS011;9722;48.754;8.868;2023-01-25T06:02:46;13.03;;;8.80;;
19179;SDS011;9722;48.754;8.868;2023-01-25T06:06:06;11.80;;;8.43;;
19179;SDS011;9722;48.754;8.868;2023-01-25T06:09:27;12.30;;;8.97;;
19179;SDS011;9722;48.754;8.868;2023-01-25T06:12:48;9.67;;;8.63;;
19179;SDS011;9722;48.754;8.868;2023-01-25T06:16:08;9.60;;;8.33;;
19179;SDS011;9722;48.754;8.868;2023-01-25T06:19:29;11.47;;;8.77;;
19179;SDS011;9722;48.754;8.868;2023-01-25T06:22:50;10.17;;;7.80;;
19179;SDS011;9722;48.754;8.868;2023-01-25T06:26:11;11.40;;;8.43;;
19179;SDS011;9722;48.754;8.868;2023-01-25T06:29:33;10.60;;;7.63;;
19179;SDS011;9722;48.754;8.868;2023-01-25T06:32:54;9.50;;;7.83;;
19179;SDS011;9722;48.754;8.868;2023-01-25T06:36:18;9.87;;;8.73;;
19179;SDS011;9722;48.754;8.868;2023-01-25T06:39:40;11.03;;;8.93;;
19179;SDS011;9722;48.754;8.868;2023-01-25T06:43:07;10.03;;;8.03;;
19179;SDS011;9722;48.754;8.868;2023-01-25T06:46:30;10.13;;;8.47;;
19179;SDS011;9722;48.754;8.868;2023-01-25T06:49:51;12.30;;;7.80;;
19179;SDS011;9722;48.754;8.868;2023-01-25T06:53:12;16.90;;;8.83;;
19179;SDS011;9722;48.754;8.868;2023-01-25T06:56:32;10.30;;;8.33;;
19179;SDS011;9722;48.754;8.868;2023-01-25T06:59:53;10.97;;;8.60;;
19179;SDS011;9722;48.754;8.868;2023-01-25T07:03:13;9.80;;;8.50;;
19179;SDS011;9722;48.754;8.868;2023-01-25T07:06:34;12.43;;;8.73;;
19179;SDS011;9722;48.754;8.868;2023-01-25T07:09:54;11.70;;;8.73;;
19179;SDS011;9722;48.754;8.868;2023-01-25T07:13:15;11.43;;;9.67;;
19179;SDS011;9722;48.754;8.868;2023-01-25T07:16:35;10.90;;;8.43;;
19179;SDS011;9722;48.754;8.868;2023-01-25T07:19:55;9.60;;;8.10;;
19179;SDS011;9722;48.754;8.868;2023-01-25T07:23:16;10.87;;;8.50;;
19179;SDS011;9722;48.754;8.868;2023-01-25T07:26:37;10.40;;;8.47;;
19179;SDS011;9722;48.754;8.868;2023-01-25T07:29:58;11.13;;;8.47;;
19179;SDS011;9722;48.754;8.868;2023-01-25T07:33:18;10.73;;;9.07;;
19179;SDS011;9722;48.754;8.868;2023-01-25T07:36:39;9.13;;;8.13;;
19179;SDS011;9722;48.754;8.868;2023-01-25T07:40:00;9.83;;;8.80;;
19179;SDS011;9722;48.754;8.868;2023-01-25T07:43:20;12.07;;;9.30;;
19179;SDS011;9722;48.754;8.868;2023-01-25T07:46:41;10.20;;;8.47;;
19179;SDS011;9722;48.754;8.868;2023-01-25T07:50:02;10.43;;;9.03;;
19179;SDS011;9722;48.754;8.868;2023-01-25T07:53:23;9.70;;;8.63;;
19179;SDS011;9722;48.754;8.868;2023-01-25T07:56:43;9.83;;;8.27;;
19179;SDS011;9722;48.754;8.868;2023-01-25T08:00:04;9.93;;;8.63;;
19179;SDS011;9722;48.754;8.868;2023-01-25T08:03:26;9.60;;;8.50;;
19179;SDS011;9722;48.754;8.868;2023-01-25T08:06:46;9.77;;;8.77;;
19179;SDS011;9722;48.754;8.868;2023-01-25T08:10:07;9.00;;;8.10;;
19179;SDS011;9722;48.754;8.868;2023-01-25T08:13:28;10.53;;;7.67;;
19179;SDS011;9722;48.754;8.868;2023-01-25T08:16:48;9.33;;;8.27;;
19179;SDS011;9722;48.754;8.868;2023-01-25T08:20:09;9.20;;;8.23;;
19179;SDS011;9722;48.754;8.868;2023-01-25T08:23:31;11.13;;;7.97;;
19179;SDS011;9722;48.754;8.868;2023-01-25T08:26:52;11.43;;;7.87;;
19179;SDS011;9722;48.754;8.868;2023-01-25T08:30:12;11.53;;;8.87;;
19179;SDS011;9722;48.754;8.868;2023-01-25T08:33:33;10.17;;;8.73;;
19179;SDS011;9722;48.754;8.868;2023-01-25T08:36:53;8.87;;;7.80;;
19179;SDS011;9722;48.754;8.868;2023-01-25T08:40:14;10.47;;;8.13;;
19179;SDS011;9722;48.754;8.868;2023-01-25T08:43:35;9.63;;;7.77;;
19179;SDS011;9722;48.754;8.868;2023-01-25T08:46:56;11.00;;;8.67;;
19179;SDS011;9722;48.754;8.868;2023-01-25T08:50:17;11.23;;;8.23;;
19179;SDS011;9722;48.754;8.868;2023-01-25T08:53:37;12.63;;;8.80;;
19179;SDS011;9722;48.754;8.868;2023-01-25T08:56:58;8.77;;;7.87;;
19179;SDS011;9722;48.754;8.868;2023-01-25T09:00:20;9.80;;;7.90;;
19179;SDS011;9722;48.754;8.868;2023-01-25T09:03:42;9.87;;;8.70;;
19179;SDS011;9722;48.754;8.868;2023-01-25T09:07:03;9.00;;;7.97;;
19179;SDS011;9722;48.754;8.868;2023-01-25T09:10:24;9.10;;;8.20;;
19179;SDS011;9722;48.754;8.868;2023-01-25T09:13:45;8.80;;;7.87;;
19179;SDS011;9722;48.754;8.868;2023-01-25T09:17:08;9.53;;;7.80;;
19179;SDS011;9722;48.754;8.868;2023-01-25T09:20:28;9.60;;;7.90;;
19179;SDS011;9722;48.754;8.868;2023-01-25T09:23:50;9.37;;;7.83;;
19179;SDS011;9722;48.754;8.868;2023-01-25T09:27:11;9.63;;;8.63;;
19179;SDS011;9722;48.754;8.868;2023-01-25T09:30:32;8.90;;;7.77;;
19179;SDS011;9722;48.754;8.868;2023-01-25T09:33:52;9.37;;;7.90;;
19179;SDS011;9722;48.754;8.868;2023-01-25T09:37:13;8.70;;;7.40;;
19179;SDS011;9722;48.754;8.868;2023-01-25T09:40:35;7.77;;;6.97;;
19179;SDS011;9722;48.754;8.868;2023-01-25T09:44:04;8.27;;;7.43;;
19179;SDS011;9722;48.754;8.868;2023-01-25T09:54:45;9.20;;;7.77;;
19179;SDS011;9722;48.754;8.868;2023-01-25T09:58:10;8.83;;;7.33;;
19179;SDS011;9722;48.754;8.868;2023-01-25T10:01:40;8.50;;;7.70;;
19179;SDS011;9722;48.754;8.868;2023-01-25T10:05:07;10.07;;;7.47;;
19179;SDS011;9722;48.754;8.868;2023-01-25T10:08:55;8.50;;;7.50;;
19179;SDS011;9722;48.754;8.868;2023-01-25T10:12:22;9.07;;;7.87;;
19179;SDS011;9722;48.754;8.868;2023-01-25T10:15:54;7.03;;;6.33;;
19179;SDS011;9722;48.754;8.868;2023-01-25T10:23:47;7.43;;;6.60;;
19179;SDS011;9722;48.754;8.868;2023-01-25T10:26:43;8.13;;;6.93;;
19179;SDS011;9722;48.754;8.868;2023-01-25T10:30:28;7.40;;;6.70;;
19179;SDS011;9722;48.754;8.868;2023-01-25T10:33:50;7.43;;;6.70;;
19179;SDS011;9722;48.754;8.868;2023-01-25T10:37:13;9.20;;;7.03;;
19179;SDS011;9722;48.754;8.868;2023-01-25T10:40:39;9.03;;;7.20;;
19179;SDS011;9722;48.754;8.868;2023-01-25T10:44:04;8.77;;;7.87;;
19179;SDS011;9722;48.754;8.868;2023-01-25T10:47:47;7.83;;;6.67;;
19179;SDS011;9722;48.754;8.868;2023-01-25T10:51:27;7.07;;;6.47;;
19179;SDS011;9722;48.754;8.868;2023-01-25T10:58:37;8.37;;;6.77;;
19179;SDS011;9722;48.754;8.868;2023-01-25T11:05:55;9.10;;;7.67;;
19179;SDS011;9722;48.754;8.868;2023-01-25T11:12:39;8.10;;;6.77;;
19179;SDS011;9722;48.754;8.868;2023-01-25T11:22:51;9.13;;;7.83;;
19179;SDS011;9722;48.754;8.868;2023-01-25T11:26:14;7.60;;;6.83;;
19179;SDS011;9722;48.754;8.868;2023-01-25T11:29:37;7.50;;;6.77;;
19179;SDS011;9722;48.754;8.868;2023-01-25T11:32:58;6.93;;;6.33;;
19179;SDS011;9722;48.754;8.868;2023-01-25T11:36:42;10.17;;;6.97;;
19179;SDS011;9722;48.754;8.868;2023-01-25T11:40:20;8.50;;;6.67;;
19179;SDS011;9722;48.754;8.868;2023-01-25T11:43:54;8.33;;;7.03;;
19179;SDS011;9722;48.754;8.868;2023-01-25T11:47:31;9.20;;;7.50;;
19179;SDS011;9722;48.754;8.868;2023-01-25T11:51:11;13.47;;;7.67;;
19179;SDS011;9722;48.754;8.868;2023-01-25T11:58:19;7.53;;;6.83;;
19179;SDS011;9722;48.754;8.868;2023-01-25T12:05:45;9.87;;;6.83;;
19179;SDS011;9722;48.754;8.868;2023-01-25T12:13:22;8.27;;;6.90;;
19179;SDS011;9722;48.754;8.868;2023-01-25T12:16:53;8.20;;;7.40;;
19179;SDS011;9722;48.754;8.868;2023-01-25T12:20:45;9.90;;;7.80;;
19179;SDS011;9722;48.754;8.868;2023-01-25T12:28:06;9.50;;;6.67;;
19179;SDS011;9722;48.754;8.868;2023-01-25T12:31:57;7.83;;;6.73;;
19179;SDS011;9722;48.754;8.868;2023-01-25T12:35:42;7.77;;;6.97;;
19179;SDS011;9722;48.754;8.868;2023-01-25T12:39:13;9.57;;;7.57;;
19179;SDS011;9722;48.754;8.868;2023-01-25T12:42:52;8.30;;;7.50;;
19179;SDS011;9722;48.754;8.868;2023-01-25T12:46:20;7.60;;;6.73;;
19179;SDS011;9722;48.754;8.868;2023-01-25T12:49:51;9.87;;;7.30;;
19179;SDS011;9722;48.754;8.868;2023-01-25T12:57:03;8.83;;;7.27;;
19179;SDS011;9722;48.754;8.868;2023-01-25T13:05:05;8.57;;;6.90;;
19179;SDS011;9722;48.754;8.868;2023-01-25T13:12:57;8.47;;;7.67;;
19179;SDS011;9722;48.754;8.868;2023-01-25T13:19:49;8.33;;;7.47;;
19179;SDS011;9722;48.754;8.868;2023-01-25T13:23:29;9.17;;;7.57;;
19179;SDS011;9722;48.754;8.868;2023-01-25T13:26:58;9.40;;;7.53;;
19179;SDS011;9722;48.754;8.868;2023-01-25T13:30:30;8.60;;;7.70;;
19179;SDS011;9722;48.754;8.868;2023-01-25T13:33:52;10.70;;;9.10;;
19179;SDS011;9722;48.754;8.868;2023-01-25T13:37:19;11.10;;;7.90;;
19179;SDS011;9722;48.754;8.868;2023-01-25T13:40:44;9.17;;;8.17;;
19179;SDS011;9722;48.754;8.868;2023-01-25T13:44:23;10.70;;;8.03;;
19179;SDS011;9722;48.754;8.868;2023-01-25T13:48:04;11.20;;;7.90;;
19179;SDS011;9722;48.754;8.868;2023-01-25T13:51:37;10.00;;;7.73;;
19179;SDS011;9722;48.754;8.868;2023-01-25T13:54:59;10.53;;;8.97;;
19179;SDS011;9722;48.754;8.868;2023-01-25T14:01:42;10.07;;;8.47;;
19179;SDS011;9722;48.754;8.868;2023-01-25T14:05:16;10.50;;;8.73;;
19179;SDS011;9722;48.754;8.868;2023-01-25T14:08:38;11.73;;;8.47;;
19179;SDS011;9722;48.754;8.868;2023-01-25T14:12:00;10.80;;;9.07;;
19179;SDS011;9722;48.754;8.868;2023-01-25T14:15:26;9.47;;;8.33;;
19179;SDS011;9722;48.754;8.868;2023-01-25T14:18:48;9.57;;;8.20;;
19179;SDS011;9722;48.754;8.868;2023-01-25T14:25:40;10.03;;;8.83;;
19179;SDS011;9722;48.754;8.868;2023-01-25T14:29:01;10.60;;;8.73;;
19179;SDS011;9722;48.754;8.868;2023-01-25T14:32:21;13.87;;;8.63;;
19179;SDS011;9722;48.754;8.868;2023-01-25T14:35:48;13.00;;;9.33;;
19179;SDS011;9722;48.754;8.868;2023-01-25T14:39:15;10.63;;;9.17;;
19179;SDS011;9722;48.754;8.868;2023-01-25T14:42:46;11.03;;;8.20;;
19179;SDS011;9722;48.754;8.868;2023-01-25T14:46:27;9.33;;;8.33;;
19179;SDS011;9722;48.754;8.868;2023-01-25T14:49:55;10.00;;;9.03;;
19179;SDS011;9722;48.754;8.868;2023-01-25T14:53:49;12.87;;;8.60;;
19179;SDS011;9722;48.754;8.868;2023-01-25T14:57:28;11.13;;;9.40;;
19179;SDS011;9722;48.754;8.868;2023-01-25T15:00:55;13.20;;;9.70;;
19179;SDS011;9722;48.754;8.868;2023-01-25T15:04:21;11.27;;;8.97;;
19179;SDS011;9722;48.754;8.868;2023-01-25T15:07:44;10.97;;;9.37;;
19179;SDS011;9722;48.754;8.868;2023-01-25T15:15:18;13.33;;;9.93;;
19179;SDS011;9722;48.754;8.868;2023-01-25T15:18:53;15.27;;;10.20;;
19179;SDS011;9722;48.754;8.868;2023-01-25T15:22:14;12.40;;;9.67;;
19179;SDS011;9722;48.754;8.868;2023-01-25T15:25:46;11.60;;;9.77;;
19179;SDS011;9722;48.754;8.868;2023-01-25T15:29:12;14.70;;;10.10;;
19179;SDS011;9722;48.754;8.868;2023-01-25T15:32:35;13.73;;;11.40;;
19179;SDS011;9722;48.754;8.868;2023-01-25T15:35:56;11.60;;;9.83;;
19179;SDS011;9722;48.754;8.868;2023-01-25T15:39:18;14.93;;;11.00;;
19179;SDS011;9722;48.754;8.868;2023-01-25T15:42:39;13.27;;;11.13;;
19179;SDS011;9722;48.754;8.868;2023-01-25T15:46:00;14.13;;;9.77;;
19179;SDS011;9722;48.754;8.868;2023-01-25T15:49:24;12.80;;;10.07;;
19179;SDS011;9722;48.754;8.868;2023-01-25T15:52:47;14.30;;;11.33;;
19179;SDS011;9722;48.754;8.868;2023-01-25T15:59:41;16.20;;;11.93;;
19179;SDS011;9722;48.754;8.868;2023-01-25T16:03:02;14.30;;;11.43;;
19179;SDS011;9722;48.754;8.868;2023-01-25T16:06:36;13.20;;;10.33;;
19179;SDS011;9722;48.754;8.868;2023-01-25T16:10:05;14.80;;;11.37;;
19179;SDS011;9722;48.754;8.868;2023-01-25T16:13:25;15.40;;;11.90;;
19179;SDS011;9722;48.754;8.868;2023-01-25T16:16:47;12.13;;;10.73;;
19179;SDS011;9722;48.754;8.868;2023-01-25T16:20:19;16.73;;;11.73;;
19179;SDS011;9722;48.754;8.868;2023-01-25T16:23:40;15.70;;;11.77;;
19179;SDS011;9722;48.754;8.868;2023-01-25T16:27:01;14.47;;;11.33;;
19179;SDS011;9722;48.754;8.868;2023-01-25T16:30:22;15.33;;;11.33;;
19179;SDS011;9722;48.754;8.868;2023-01-25T16:33:50;16.33;;;11.77;;
19179;SDS011;9722;48.754;8.868;2023-01-25T16:37:13;17.03;;;12.83;;
19179;SDS011;9722;48.754;8.868;2023-01-25T16:40:35;15.87;;;11.87;;
19179;SDS011;9722;48.754;8.868;2023-01-25T16:43:57;13.03;;;11.43;;
19179;SDS011;9722;48.754;8.868;2023-01-25T16:47:18;18.33;;;13.10;;
19179;SDS011;9722;48.754;8.868;2023-01-25T16:50:38;16.37;;;11.90;;
19179;SDS011;9722;48.754;8.868;2023-01-25T16:53:59;16.27;;;12.50;;
19179;SDS011;9722;48.754;8.868;2023-01-25T16:57:19;15.47;;;11.97;;
19179;SDS011;9722;48.754;8.868;2023-01-25T17:00:40;15.50;;;11.83;;
19179;SDS011;9722;48.754;8.868;2023-01-25T17:04:01;18.27;;;12.87;;
19179;SDS011;9722;48.754;8.868;2023-01-25T17:07:21;18.60;;;12.67;;
19179;SDS011;9722;48.754;8.868;2023-01-25T17:10:42;16.83;;;11.93;;
19179;SDS011;9722;48.754;8.868;2023-01-25T17:14:03;19.20;;;12.63;;
19179;SDS011;9722;48.754;8.868;2023-01-25T17:17:24;13.27;;;11.90;;
19179;SDS011;9722;48.754;8.868;2023-01-25T17:20:54;20.53;;;12.10;;
19179;SDS011;9722;48.754;8.868;2023-01-25T17:24:17;15.87;;;12.33;;
19179;SDS011;9722;48.754;8.868;2023-01-25T17:27:39;17.83;;;12.43;;
19179;SDS011;9722;48.754;8.868;2023-01-25T17:31:00;21.47;;;13.10;;
19179;SDS011;9722;48.754;8.868;2023-01-25T17:34:21;18.57;;;13.13;;
19179;SDS011;9722;48.754;8.868;2023-01-25T17:37:41;17.20;;;12.80;;
19179;SDS011;9722;48.754;8.868;2023-01-25T17:41:03;21.13;;;13.83;;
19179;SDS011;9722;48.754;8.868;2023-01-25T17:44:24;19.80;;;13.70;;
19179;SDS011;9722;48.754;8.868;2023-01-25T17:47:44;20.33;;;14.07;;
19179;SDS011;9722;48.754;8.868;2023-01-25T17:51:05;19.23;;;13.10;;
19179;SDS011;9722;48.754;8.868;2023-01-25T17:54:26;19.57;;;13.63;;
19179;SDS011;9722;48.754;8.868;2023-01-25T17:57:47;20.20;;;14.50;;
19179;SDS011;9722;48.754;8.868;2023-01-25T18:01:11;18.70;;;13.40;;
19179;SDS011;9722;48.754;8.868;2023-01-25T18:04:36;20.53;;;14.30;;
19179;SDS011;9722;48.754;8.868;2023-01-25T18:07:57;22.50;;;14.37;;
19179;SDS011;9722;48.754;8.868;2023-01-25T18:11:19;19.63;;;12.60;;
19179;SDS011;9722;48.754;8.868;2023-01-25T18:14:41;17.23;;;13.43;;
19179;SDS011;9722;48.754;8.868;2023-01-25T18:18:04;21.57;;;13.43;;
19179;SDS011;9722;48.754;8.868;2023-01-25T18:21:25;20.70;;;14.23;;
19179;SDS011;9722;48.754;8.868;2023-01-25T18:24:48;17.07;;;13.63;;
19179;SDS011;9722;48.754;8.868;2023-01-25T18:28:11;17.83;;;13.27;;
19179;SDS011;9722;48.754;8.868;2023-01-25T18:31:32;19.50;;;13.50;;
19179;SDS011;9722;48.754;8.868;2023-01-25T18:34:53;17.70;;;13.67;;
19179;SDS011;9722;48.754;8.868;2023-01-25T18:38:13;19.17;;;13.27;;
19179;SDS011;9722;48.754;8.868;2023-01-25T18:41:34;19.03;;;13.27;;
19179;SDS011;9722;48.754;8.868;2023-01-25T18:44:54;19.07;;;12.90;;
19179;SDS011;9722;48.754;8.868;2023-01-25T18:48:15;23.87;;;14.43;;
19179;SDS011;9722;48.754;8.868;2023-01-25T18:51:38;20.90;;;14.23;;
19179;SDS011;9722;48.754;8.868;2023-01-25T18:54:59;20.40;;;13.70;;
19179;SDS011;9722;48.754;8.868;2023-01-25T18:58:20;22.70;;;14.90;;
19179;SDS011;9722;48.754;8.868;2023-01-25T19:01:40;21.77;;;14.63;;
19179;SDS011;9722;48.754;8.868;2023-01-25T19:05:00;22.90;;;15.37;;
19179;SDS011;9722;48.754;8.868;2023-01-25T19:08:21;23.27;;;14.13;;
19179;SDS011;9722;48.754;8.868;2023-01-25T19:11:41;21.80;;;14.57;;
19179;SDS011;9722;48.754;8.868;2023-01-25T19:15:02;21.03;;;14.00;;
19179;SDS011;9722;48.754;8.868;2023-01-25T19:18:23;23.50;;;13.73;;
19179;SDS011;9722;48.754;8.868;2023-01-25T19:21:43;20.50;;;14.30;;
19179;SDS011;9722;48.754;8.868;2023-01-25T19:25:04;20.67;;;14.83;;
19179;SDS011;9722;48.754;8.868;2023-01-25T19:28:25;21.30;;;14.63;;
19179;SDS011;9722;48.754;8.868;2023-01-25T19:31:45;23.57;;;14.57;;
19179;SDS011;9722;48.754;8.868;2023-01-25T19:35:06;21.30;;;14.40;;
19179;SDS011;9722;48.754;8.868;2023-01-25T19:38:27;22.50;;;14.73;;
19179;SDS011;9722;48.754;8.868;2023-01-25T19:41:49;22.57;;;14.50;;
19179;SDS011;9722;48.754;8.868;2023-01-25T19:45:11;24.43;;;14.13;;
19179;SDS011;9722;48.754;8.868;2023-01-25T19:48:32;25.30;;;15.80;;
19179;SDS011;9722;48.754;8.868;2023-01-25T19:51:54;22.03;;;14.53;;
19179;SDS011;9722;48.754;8.868;2023-01-25T19:55:15;22.23;;;13.17;;
19179;SDS011;9722;48.754;8.868;2023-01-25T19:58:35;22.03;;;13.63;;
19179;SDS011;9722;48.754;8.868;2023-01-25T20:01:56;21.30;;;13.50;;
19179;SDS011;9722;48.754;8.868;2023-01-25T20:05:16;19.70;;;13.70;;
19179;SDS011;9722;48.754;8.868;2023-01-25T20:08:37;23.73;;;14.67;;
19179;SDS011;9722;48.754;8.868;2023-01-25T20:11:59;22.93;;;15.30;;
19179;SDS011;9722;48.754;8.868;2023-01-25T20:15:21;23.67;;;14.57;;
19179;SDS011;9722;48.754;8.868;2023-01-25T20:18:42;21.37;;;14.70;;
19179;SDS011;9722;48.754;8.868;2023-01-25T20:22:04;23.03;;;14.00;;
19179;SDS011;9722;48.754;8.868;2023-01-25T20:25:25;22.90;;;13.83;;
19179;SDS011;9722;48.754;8.868;2023-01-25T20:28:46;22.03;;;14.20;;
19179;SDS011;9722;48.754;8.868;2023-01-25T20:32:10;23.57;;;14.53;;
19179;SDS011;9722;48.754;8.868;2023-01-25T20:35:31;27.77;;;15.23;;
19179;SDS011;9722;48.754;8.868;2023-01-25T20:38:51;26.10;;;16.63;;
19179;SDS011;9722;48.754;8.868;2023-01-25T20:42:12;26.33;;;15.33;;
19179;SDS011;9722;48.754;8.868;2023-01-25T20:45:33;24.67;;;14.90;;
19179;SDS011;9722;48.754;8.868;2023-01-25T20:48:54;28.90;;;16.63;;
19179;SDS011;9722;48.754;8.868;2023-01-25T20:52:15;25.20;;;14.67;;
19179;SDS011;9722;48.754;8.868;2023-01-25T20:55:35;25.57;;;15.83;;
19179;SDS011;9722;48.754;8.868;2023-01-25T20:58:56;57.90;;;32.97;;
19179;SDS011;9722;48.754;8.868;2023-01-25T21:02:16;30.37;;;17.37;;
19179;SDS011;9722;48.754;8.868;2023-01-25T21:05:37;31.63;;;16.13;;
19179;SDS011;9722;48.754;8.868;2023-01-25T21:08:57;27.13;;;14.90;;
19179;SDS011;9722;48.754;8.868;2023-01-25T21:12:18;24.30;;;13.20;;
19179;SDS011;9722;48.754;8.868;2023-01-25T21:15:38;25.40;;;14.17;;
19179;SDS011;9722;48.754;8.868;2023-01-25T21:19:02;21.60;;;13.80;;
19179;SDS011;9722;48.754;8.868;2023-01-25T21:22:26;25.03;;;14.50;;
19179;SDS011;9722;48.754;8.868;2023-01-25T21:25:50;24.10;;;13.97;;
19179;SDS011;9722;48.754;8.868;2023-01-25T21:29:11;25.90;;;15.03;;
19179;SDS011;9722;48.754;8.868;2023-01-25T21:32:31;29.23;;;16.43;;
19179;SDS011;9722;48.754;8.868;2023-01-25T21:35:51;34.87;;;19.43;;
19179;SDS011;9722;48.754;8.868;2023-01-25T21:39:14;24.87;;;15.97;;
19179;SDS011;9722;48.754;8.868;2023-01-25T21:42:34;32.07;;;15.87;;